Time;durP1;ratioP1;P1;durP2;ratioP2;P2;SDS_P1;SDS_P2;PMS_P1;PMS_P2;Temp;Humidity;BMP_temperature;BMP_pressure;BME280_temperature;BME280_humidity;BME280_pressure;Samples;Min_cycle;Max_cycle;Signal;HPM_P1;HPM_P2
2021/09/22 00:02:12;;;;;;;4.80;4.30;;;7.00;99.90;;;;;;5034762;28;20573;-64
2021/09/22 00:04:37;;;;;;;5.13;4.63;;;7.00;99.90;;;;;;5021403;28;20264;-66
2021/09/22 00:07:03;;;;;;;4.70;4.13;;;7.00;99.90;;;;;;5043521;28;20172;-65
2021/09/22 00:09:29;;;;;;;4.30;4.00;;;7.00;99.90;;;;;;5039255;28;20200;-61
2021/09/22 00:11:55;;;;;;;6.67;4.60;;;7.00;99.90;;;;;;5034560;28;20220;-60
2021/09/22 00:14:21;;;;;;;5.73;4.87;;;7.00;99.90;;;;;;5040091;28;20465;-65
2021/09/22 00:16:47;;;;;;;5.33;4.83;;;7.00;99.90;;;;;;5034487;28;20170;-63
2021/09/22 00:19:12;;;;;;;7.10;5.67;;;7.00;99.90;;;;;;5033944;28;20603;-59
2021/09/22 00:21:38;;;;;;;9.50;4.67;;;6.90;99.90;;;;;;5034409;28;20463;-62
2021/09/22 00:24:04;;;;;;;6.40;4.77;;;6.80;99.90;;;;;;5043002;28;20208;-65
2021/09/22 00:26:30;;;;;;;5.57;4.47;;;6.80;99.90;;;;;;5044049;28;20232;-61
2021/09/22 00:28:56;;;;;;;4.40;4.00;;;6.90;99.90;;;;;;5033896;28;20867;-64
2021/09/22 00:31:21;;;;;;;5.93;4.67;;;6.90;99.90;;;;;;5034241;28;20181;-62
2021/09/22 00:33:47;;;;;;;5.33;4.80;;;6.90;99.90;;;;;;5033940;28;20198;-63
2021/09/22 00:36:13;;;;;;;4.60;4.27;;;6.80;99.90;;;;;;5034216;28;20174;-65
2021/09/22 00:38:38;;;;;;;5.27;4.53;;;6.80;99.90;;;;;;5033642;28;20193;-65
2021/09/22 00:41:04;;;;;;;4.23;3.93;;;6.80;99.90;;;;;;5034112;28;20165;-65
2021/09/22 00:43:30;;;;;;;4.20;3.90;;;6.70;99.90;;;;;;5033968;28;20179;-64
2021/09/22 00:46:00;;;;;;;6.93;4.47;;;6.70;99.90;;;;;;5034341;28;20176;-63
2021/09/22 00:48:26;;;;;;;4.13;3.73;;;6.70;99.90;;;;;;5040763;28;20205;-65
2021/09/22 00:50:52;;;;;;;5.20;4.80;;;6.70;99.90;;;;;;5041729;28;20444;-64
2021/09/22 00:53:18;;;;;;;4.40;4.00;;;6.70;99.90;;;;;;5041871;28;20417;-64
2021/09/22 00:55:44;;;;;;;5.03;4.23;;;6.70;99.90;;;;;;5042387;28;20413;-65
2021/09/22 00:58:11;;;;;;;5.97;4.60;;;6.70;99.90;;;;;;5039253;28;20971;-65
2021/09/22 01:00:38;;;;;;;4.90;4.40;;;6.60;99.90;;;;;;5041520;28;20442;-65
2021/09/22 01:03:05;;;;;;;4.20;3.80;;;6.60;99.90;;;;;;5039654;28;20483;-65
2021/09/22 01:05:31;;;;;;;4.33;3.93;;;6.60;99.90;;;;;;5041282;28;20414;-65
2021/09/22 01:07:57;;;;;;;4.50;4.10;;;6.50;99.90;;;;;;5041271;28;20452;-65
2021/09/22 01:10:23;;;;;;;4.37;3.97;;;6.50;99.90;;;;;;5040301;28;20461;-65
2021/09/22 01:12:49;;;;;;;5.00;3.83;;;6.50;99.90;;;;;;5039795;28;20428;-65
2021/09/22 01:15:32;;;;;;;5.60;5.10;;;6.50;99.90;;;;;;5039363;28;20971;-66
2021/09/22 01:17:59;;;;;;;4.90;4.40;;;6.50;99.90;;;;;;5039544;28;20444;-66
2021/09/22 01:20:29;;;;;;;5.50;4.93;;;6.40;99.90;;;;;;5040523;28;20397;-64
2021/09/22 01:22:56;;;;;;;5.67;4.40;;;6.40;99.90;;;;;;5041177;28;20408;-65
2021/09/22 01:25:22;;;;;;;4.90;3.80;;;6.30;99.90;;;;;;5040527;28;20943;-66
2021/09/22 01:27:49;;;;;;;5.23;4.60;;;6.40;99.90;;;;;;5039265;28;20431;-65
2021/09/22 01:30:15;;;;;;;4.73;4.30;;;6.40;99.90;;;;;;5039352;28;20434;-64
2021/09/22 01:32:56;;;;;;;7.60;4.67;;;6.40;99.90;;;;;;5040017;28;20415;-64
2021/09/22 01:35:22;;;;;;;4.07;3.67;;;6.40;99.90;;;;;;5038405;28;20992;-65
2021/09/22 01:37:49;;;;;;;5.00;4.50;;;6.40;99.90;;;;;;5037670;28;20943;-65
2021/09/22 01:40:16;;;;;;;5.83;5.23;;;6.40;99.90;;;;;;5037763;28;20535;-65
2021/09/22 01:42:42;;;;;;;9.10;4.93;;;6.40;99.90;;;;;;5039546;28;20408;-66
2021/09/22 01:45:11;;;;;;;4.20;3.70;;;6.40;99.90;;;;;;5039628;28;20411;-65
2021/09/22 01:47:37;;;;;;;4.87;4.20;;;6.30;99.90;;;;;;5038432;28;20808;-66
2021/09/22 01:50:18;;;;;;;4.30;3.90;;;6.30;99.90;;;;;;5037426;28;20418;-65
2021/09/22 01:52:45;;;;;;;5.13;4.63;;;6.30;99.90;;;;;;5037374;28;20409;-65
2021/09/22 01:55:12;;;;;;;4.20;3.80;;;6.30;99.90;;;;;;5036769;28;20500;-65
2021/09/22 01:57:38;;;;;;;6.90;4.73;;;6.30;99.90;;;;;;5036233;28;20427;-64
2021/09/22 02:00:05;;;;;;;4.20;3.90;;;6.30;99.90;;;;;;5035576;28;20405;-66
2021/09/22 02:02:32;;;;;;;5.87;4.80;;;6.20;99.90;;;;;;5035842;28;20168;-65
2021/09/22 02:04:58;;;;;;;4.37;3.97;;;6.20;99.90;;;;;;5036212;28;20773;-65
2021/09/22 02:07:24;;;;;;;5.40;4.90;;;6.10;99.90;;;;;;5035413;28;20423;-65
2021/09/22 02:09:49;;;;;;;6.43;4.50;;;6.20;99.90;;;;;;5035094;28;20451;-66
2021/09/22 02:12:15;;;;;;;7.50;5.00;;;6.10;99.90;;;;;;5035058;28;20235;-66
2021/09/22 02:14:41;;;;;;;5.23;4.63;;;6.10;99.90;;;;;;5034519;28;20677;-63
2021/09/22 02:17:07;;;;;;;5.23;4.73;;;6.20;99.90;;;;;;5034610;28;20177;-65
2021/09/22 02:19:32;;;;;;;5.40;3.87;;;6.20;99.90;;;;;;5034103;28;20202;-65
2021/09/22 02:21:58;;;;;;;5.90;5.30;;;6.10;99.90;;;;;;5033846;28;20806;-66
2021/09/22 02:24:24;;;;;;;5.80;4.10;;;6.10;99.90;;;;;;5034584;28;20180;-66
2021/09/22 02:26:51;;;;;;;4.87;4.40;;;6.10;99.90;;;;;;5034078;28;20180;-65
2021/09/22 02:29:20;;;;;;;4.93;4.50;;;6.10;99.90;;;;;;5033911;28;20201;-64
2021/09/22 02:31:48;;;;;;;4.73;4.23;;;6.10;99.90;;;;;;5034125;28;20423;-65
2021/09/22 02:34:14;;;;;;;4.27;3.87;;;6.10;99.90;;;;;;5033779;28;20514;-65
2021/09/22 02:36:40;;;;;;;5.83;5.33;;;6.10;99.90;;;;;;5015752;28;20430;-65
2021/09/22 02:39:06;;;;;;;7.30;5.47;;;6.00;99.90;;;;;;5032936;28;20423;-65
2021/09/22 02:41:32;;;;;;;5.00;4.50;;;6.00;99.90;;;;;;5033328;28;20953;-64
2021/09/22 02:44:00;;;;;;;4.20;3.73;;;6.00;99.90;;;;;;5033291;28;20181;-64
2021/09/22 02:46:26;;;;;;;4.70;4.30;;;5.90;99.90;;;;;;5033125;28;20440;-65
2021/09/22 02:48:52;;;;;;;5.63;4.90;;;5.90;99.90;;;;;;5032684;28;20438;-65
2021/09/22 02:51:18;;;;;;;5.33;4.63;;;5.90;99.90;;;;;;5032832;28;20788;-66
2021/09/22 02:53:43;;;;;;;5.37;4.87;;;5.90;99.90;;;;;;5033434;28;20644;-66
2021/09/22 02:56:09;;;;;;;6.07;4.30;;;5.90;99.90;;;;;;5032976;28;20172;-65
2021/09/22 02:58:34;;;;;;;9.40;5.30;;;5.90;99.90;;;;;;5032554;28;20656;-65
2021/09/22 03:01:00;;;;;;;5.90;5.20;;;5.90;99.90;;;;;;5032426;28;20172;-64
2021/09/22 03:03:27;;;;;;;5.60;4.77;;;5.90;99.90;;;;;;5032314;28;20173;-66
2021/09/22 03:05:53;;;;;;;5.30;4.80;;;5.80;99.90;;;;;;5032130;28;20644;-65
2021/09/22 03:08:19;;;;;;;5.67;5.00;;;5.70;99.90;;;;;;5031874;28;20562;-65
2021/09/22 03:10:44;;;;;;;6.53;5.13;;;5.80;99.90;;;;;;5032379;28;20714;-66
2021/09/22 03:13:10;;;;;;;6.33;5.60;;;5.80;99.90;;;;;;5032781;28;20529;-65
2021/09/22 03:15:35;;;;;;;6.90;3.97;;;5.80;99.90;;;;;;5032240;28;20173;-66
2021/09/22 03:18:01;;;;;;;6.87;4.47;;;5.80;99.90;;;;;;5031852;28;20188;-65
2021/09/22 03:20:26;;;;;;;6.70;4.67;;;5.80;99.90;;;;;;5031849;28;20645;-65
2021/09/22 03:22:52;;;;;;;4.83;4.33;;;5.80;99.90;;;;;;5032298;28;20276;-66
2021/09/22 03:25:18;;;;;;;4.80;4.40;;;5.80;99.90;;;;;;5032127;28;20169;-65
2021/09/22 03:27:44;;;;;;;6.33;4.63;;;5.80;99.90;;;;;;5031826;28;20200;-65
2021/09/22 03:30:11;;;;;;;4.63;4.33;;;5.80;99.90;;;;;;5013968;28;20184;-65
2021/09/22 03:32:38;;;;;;;6.97;5.80;;;5.80;99.90;;;;;;5032701;28;20803;-66
2021/09/22 03:35:04;;;;;;;7.77;5.23;;;5.80;99.90;;;;;;5031559;28;20893;-65
2021/09/22 03:37:30;;;;;;;5.17;4.47;;;5.80;99.90;;;;;;5031648;28;20431;-64
2021/09/22 03:39:55;;;;;;;4.97;4.57;;;5.80;99.90;;;;;;5031192;28;20985;-65
2021/09/22 03:42:21;;;;;;;7.37;5.20;;;5.80;99.90;;;;;;5031659;28;20652;-65
2021/09/22 03:44:46;;;;;;;6.13;4.83;;;5.80;99.90;;;;;;5031565;28;20181;-65
2021/09/22 03:47:12;;;;;;;5.67;4.03;;;5.80;99.90;;;;;;5031549;28;20173;-64
2021/09/22 03:49:38;;;;;;;7.03;4.80;;;5.80;99.90;;;;;;5031185;28;20180;-66
2021/09/22 03:52:03;;;;;;;5.60;5.10;;;5.80;99.90;;;;;;5031486;28;20173;-65
2021/09/22 03:54:29;;;;;;;6.20;5.00;;;5.80;99.90;;;;;;5031612;28;20684;-65
2021/09/22 03:56:55;;;;;;;7.57;5.10;;;5.70;99.90;;;;;;5031471;28;20506;-65
2021/09/22 03:59:20;;;;;;;6.63;5.50;;;5.70;99.90;;;;;;5034061;28;20192;-65
2021/09/22 04:01:46;;;;;;;6.00;4.53;;;5.70;99.90;;;;;;5017765;28;20173;-64
2021/09/22 04:04:12;;;;;;;5.97;4.57;;;5.70;99.90;;;;;;5034614;28;20180;-63
2021/09/22 04:06:38;;;;;;;9.63;5.13;;;5.70;99.90;;;;;;5034712;28;20177;-64
2021/09/22 04:09:03;;;;;;;5.67;4.70;;;5.70;99.90;;;;;;5034471;28;20240;-64
2021/09/22 04:11:29;;;;;;;4.80;4.40;;;5.70;99.90;;;;;;5034502;28;20442;-63
2021/09/22 04:13:55;;;;;;;5.63;5.10;;;5.60;99.90;;;;;;5034548;28;20294;-63
2021/09/22 04:16:21;;;;;;;7.70;4.90;;;5.60;99.90;;;;;;5034589;28;20407;-63
2021/09/22 04:18:46;;;;;;;6.63;5.77;;;5.60;99.90;;;;;;5033927;28;20191;-63
2021/09/22 04:21:12;;;;;;;5.80;5.17;;;5.60;99.90;;;;;;5034306;28;20252;-63
2021/09/22 04:23:37;;;;;;;8.33;6.27;;;5.60;99.90;;;;;;5015449;28;20637;-63
2021/09/22 04:26:03;;;;;;;4.70;4.20;;;5.50;99.90;;;;;;5034217;28;20183;-65
2021/09/22 04:28:29;;;;;;;5.60;5.03;;;5.50;99.90;;;;;;5033581;28;20684;-64
2021/09/22 04:30:55;;;;;;;7.07;5.63;;;5.50;99.90;;;;;;5034110;28;20407;-65
2021/09/22 04:33:20;;;;;;;5.67;5.10;;;5.50;99.90;;;;;;5033936;28;20216;-65
2021/09/22 04:35:46;;;;;;;9.77;6.30;;;5.50;99.90;;;;;;5034242;28;20172;-65
2021/09/22 04:38:12;;;;;;;7.83;5.80;;;5.40;99.90;;;;;;5033766;28;20189;-65
2021/09/22 04:40:38;;;;;;;7.67;5.30;;;5.50;99.90;;;;;;5034066;28;20164;-65
2021/09/22 04:43:04;;;;;;;8.60;5.30;;;5.50;99.90;;;;;;5034081;28;20199;-65
2021/09/22 04:45:29;;;;;;;7.90;5.63;;;5.50;99.90;;;;;;5034058;28;20415;-65
2021/09/22 04:47:56;;;;;;;5.63;5.00;;;5.40;99.90;;;;;;5033598;28;20192;-64
2021/09/22 04:50:22;;;;;;;6.50;5.77;;;5.40;99.90;;;;;;5033793;28;20185;-65
2021/09/22 04:52:48;;;;;;;6.20;5.60;;;5.40;99.90;;;;;;5033926;28;20412;-64
2021/09/22 04:55:14;;;;;;;5.67;5.10;;;5.40;99.90;;;;;;5033827;28;20462;-65
2021/09/22 04:57:40;;;;;;;7.57;5.80;;;5.40;99.90;;;;;;5033663;28;20431;-65
2021/09/22 05:00:07;;;;;;;7.47;6.10;;;5.40;99.90;;;;;;5033420;28;20199;-64
2021/09/22 05:02:33;;;;;;;6.90;6.17;;;5.40;99.90;;;;;;5033480;28;20407;-64
2021/09/22 05:04:58;;;;;;;9.63;7.77;;;5.40;99.90;;;;;;5033648;28;20418;-65
2021/09/22 05:07:24;;;;;;;7.07;5.40;;;5.40;99.90;;;;;;5033461;28;20236;-64
2021/09/22 05:09:50;;;;;;;8.10;6.53;;;5.40;99.90;;;;;;5032057;28;20188;-65
2021/09/22 05:12:15;;;;;;;5.90;5.13;;;5.40;99.90;;;;;;5033514;28;20203;-65
2021/09/22 05:14:41;;;;;;;8.47;5.73;;;5.30;99.90;;;;;;5033413;28;20263;-65
2021/09/22 05:17:07;;;;;;;5.77;4.80;;;5.30;99.90;;;;;;5033185;28;20638;-65
2021/09/22 05:19:32;;;;;;;7.13;6.43;;;5.30;99.90;;;;;;5033225;28;20165;-64
2021/09/22 05:21:58;;;;;;;7.10;5.77;;;5.20;99.90;;;;;;5033441;28;20180;-65
2021/09/22 05:24:24;;;;;;;9.70;4.80;;;5.20;99.90;;;;;;5033243;28;20196;-63
2021/09/22 05:26:49;;;;;;;8.17;5.57;;;5.30;99.90;;;;;;5033098;28;20411;-64
2021/09/22 05:29:15;;;;;;;7.10;5.53;;;5.30;99.90;;;;;;5032837;28;20730;-64
2021/09/22 05:31:41;;;;;;;8.10;5.67;;;5.30;99.90;;;;;;5032893;28;20584;-66
2021/09/22 05:34:06;;;;;;;6.73;5.13;;;5.30;99.90;;;;;;5033000;28;20673;-66
2021/09/22 05:36:32;;;;;;;13.03;6.30;;;5.30;99.90;;;;;;5033002;28;20177;-65
2021/09/22 05:38:57;;;;;;;7.70;5.03;;;5.30;99.90;;;;;;5032626;28;20219;-65
2021/09/22 05:41:23;;;;;;;8.53;6.20;;;5.30;99.90;;;;;;5032866;28;20626;-64
2021/09/22 05:43:49;;;;;;;6.40;5.80;;;5.30;99.90;;;;;;5032903;28;20243;-64
2021/09/22 05:46:14;;;;;;;8.10;5.77;;;5.30;99.90;;;;;;5032674;28;20173;-64
2021/09/22 05:48:40;;;;;;;6.80;5.97;;;5.30;99.90;;;;;;5032625;28;20200;-64
2021/09/22 05:51:05;;;;;;;9.47;6.50;;;5.30;99.90;;;;;;5032675;28;20637;-64
2021/09/22 05:53:31;;;;;;;9.40;5.57;;;5.30;99.90;;;;;;5032823;28;20224;-64
2021/09/22 05:55:57;;;;;;;7.37;6.33;;;5.30;99.90;;;;;;5032727;28;20715;-65
2021/09/22 05:58:24;;;;;;;7.50;5.53;;;5.30;99.90;;;;;;5032193;28;20211;-63
2021/09/22 06:00:52;;;;;;;8.37;6.03;;;5.40;99.90;;;;;;5032246;28;20246;-65
2021/09/22 06:03:18;;;;;;;10.90;6.93;;;5.40;99.90;;;;;;5032445;28;20919;-64
2021/09/22 06:05:44;;;;;;;11.30;6.80;;;5.40;99.90;;;;;;5032542;28;20495;-64
2021/09/22 06:08:10;;;;;;;7.17;6.13;;;5.50;99.90;;;;;;5031906;28;20522;-64
2021/09/22 06:10:37;;;;;;;11.10;7.00;;;5.50;99.90;;;;;;5032769;28;20207;-64
2021/09/22 06:13:04;;;;;;;10.50;7.53;;;5.60;99.90;;;;;;5032352;28;20478;-64
2021/09/22 06:15:30;;;;;;;9.20;5.67;;;5.60;99.90;;;;;;5032083;28;20554;-64
2021/09/22 06:17:55;;;;;;;9.10;6.83;;;5.70;99.90;;;;;;5032014;28;20511;-64
2021/09/22 06:20:21;;;;;;;10.53;7.43;;;5.70;99.90;;;;;;5031930;28;20579;-64
2021/09/22 06:22:47;;;;;;;9.07;7.20;;;5.80;99.90;;;;;;5032048;28;20218;-64
2021/09/22 06:25:14;;;;;;;10.43;7.27;;;5.90;99.90;;;;;;5032150;28;20410;-65
2021/09/22 06:27:40;;;;;;;8.13;6.67;;;6.00;99.90;;;;;;5032001;28;20632;-64
2021/09/22 06:30:07;;;;;;;11.23;6.90;;;6.00;99.90;;;;;;5031626;28;20818;-63
2021/09/22 06:32:32;;;;;;;13.03;8.83;;;6.10;99.90;;;;;;5031989;28;20930;-65
2021/09/22 06:34:58;;;;;;;13.03;9.10;;;6.10;99.90;;;;;;5031987;28;20459;-64
2021/09/22 06:37:24;;;;;;;11.80;7.27;;;6.20;99.90;;;;;;5031924;28;20272;-64
2021/09/22 06:39:49;;;;;;;12.60;7.77;;;6.30;99.90;;;;;;5031643;28;20206;-65
2021/09/22 06:42:15;;;;;;;10.77;7.17;;;6.30;99.90;;;;;;5031861;28;20559;-65
2021/09/22 06:44:41;;;;;;;18.37;8.27;;;6.40;99.90;;;;;;5032208;28;20176;-65
2021/09/22 06:47:06;;;;;;;15.73;9.53;;;6.50;99.90;;;;;;5031968;28;20176;-64
2021/09/22 06:49:32;;;;;;;10.90;8.43;;;6.60;99.90;;;;;;5031558;28;20268;-65
2021/09/22 06:51:58;;;;;;;14.77;11.00;;;6.70;99.90;;;;;;5031807;28;20697;-66
2021/09/22 06:54:23;;;;;;;15.23;10.17;;;6.70;99.90;;;;;;5032119;28;20192;-66
2021/09/22 06:56:49;;;;;;;13.37;10.50;;;6.80;99.90;;;;;;5031793;28;20179;-66
2021/09/22 06:59:15;;;;;;;13.43;9.87;;;6.90;99.90;;;;;;5031238;28;20193;-66
2021/09/22 07:01:41;;;;;;;12.07;10.40;;;7.00;99.90;;;;;;5031658;28;20168;-66
2021/09/22 07:04:07;;;;;;;16.53;12.57;;;7.10;99.90;;;;;;5031655;28;20786;-66
2021/09/22 07:06:33;;;;;;;13.83;10.43;;;7.20;99.90;;;;;;5031708;28;20181;-66
2021/09/22 07:08:59;;;;;;;18.80;11.77;;;7.30;99.90;;;;;;5031168;28;20546;-66
2021/09/22 07:11:24;;;;;;;17.83;11.80;;;7.50;99.90;;;;;;5031613;28;20169;-66
2021/09/22 07:13:50;;;;;;;15.47;12.03;;;7.50;99.90;;;;;;5031383;28;20734;-66
2021/09/22 07:16:16;;;;;;;14.97;13.07;;;7.60;99.90;;;;;;5031649;28;20257;-65
2021/09/22 07:18:44;;;;;;;21.23;13.27;;;7.80;99.90;;;;;;5031077;28;20278;-66
2021/09/22 07:21:11;;;;;;;22.50;11.80;;;7.90;99.90;;;;;;5031621;28;20815;-66
2021/09/22 07:23:38;;;;;;;16.63;10.20;;;8.00;99.90;;;;;;5031486;28;20895;-65
2021/09/22 07:26:05;;;;;;;16.83;11.63;;;8.10;99.90;;;;;;5031523;28;21008;-66
2021/09/22 07:28:32;;;;;;;17.33;11.60;;;8.30;99.90;;;;;;5031224;28;20515;-65
2021/09/22 07:30:58;;;;;;;13.83;11.80;;;8.40;99.90;;;;;;5031422;28;20414;-65
2021/09/22 07:33:24;;;;;;;14.53;12.57;;;8.50;99.90;;;;;;5032933;28;20409;-65
2021/09/22 07:35:50;;;;;;;19.47;13.57;;;8.80;99.90;;;;;;5035440;28;20418;-65
2021/09/22 07:38:16;;;;;;;19.53;13.03;;;9.00;99.90;;;;;;5034849;28;20942;-65
2021/09/22 07:40:43;;;;;;;17.93;12.73;;;9.10;99.90;;;;;;5035184;28;20406;-65
2021/09/22 07:43:09;;;;;;;17.73;13.00;;;9.30;99.90;;;;;;5035112;28;20414;-64
2021/09/22 07:45:35;;;;;;;15.70;13.17;;;9.50;99.90;;;;;;5035100;28;20414;-65
2021/09/22 07:48:00;;;;;;;13.90;11.07;;;9.60;99.90;;;;;;5034716;28;20184;-65
2021/09/22 07:50:26;;;;;;;21.60;13.90;;;9.80;99.90;;;;;;5035022;28;20977;-65
2021/09/22 07:52:52;;;;;;;17.40;11.50;;;10.00;99.90;;;;;;5035083;28;20180;-65
2021/09/22 07:55:17;;;;;;;15.30;12.47;;;10.10;99.90;;;;;;5034873;28;20195;-66
2021/09/22 07:57:44;;;;;;;18.80;12.57;;;10.30;99.90;;;;;;5034632;28;20262;-67
2021/09/22 08:00:11;;;;;;;15.47;12.70;;;10.50;99.90;;;;;;5034544;28;20176;-69
2021/09/22 08:02:37;;;;;;;20.03;12.33;;;10.70;99.90;;;;;;5034833;28;20411;-68
2021/09/22 08:05:04;;;;;;;14.17;10.70;;;10.90;99.90;;;;;;5035188;28;20465;-67
2021/09/22 08:07:30;;;;;;;19.60;16.37;;;11.10;99.90;;;;;;5034648;28;20695;-67
2021/09/22 08:09:55;;;;;;;21.80;17.60;;;11.30;99.90;;;;;;5034089;28;20431;-66
2021/09/22 08:12:21;;;;;;;27.53;18.53;;;11.50;99.90;;;;;;5034773;28;20176;-65
2021/09/22 08:14:46;;;;;;;25.03;18.67;;;11.80;99.90;;;;;;5034573;28;20658;-66
2021/09/22 08:17:14;;;;;;;21.00;16.90;;;12.10;99.90;;;;;;5034686;28;20180;-65
2021/09/22 08:19:40;;;;;;;22.70;16.20;;;12.40;99.90;;;;;;5034192;28;20173;-65
2021/09/22 08:22:07;;;;;;;15.73;11.07;;;12.60;99.90;;;;;;5034391;28;20423;-66
2021/09/22 08:24:32;;;;;;;18.17;11.50;;;12.90;99.90;;;;;;5034259;28;20413;-66
2021/09/22 08:26:58;;;;;;;16.50;10.57;;;13.20;99.90;;;;;;5034532;28;20423;-65
2021/09/22 08:29:24;;;;;;;11.63;9.43;;;13.40;99.90;;;;;;5033944;28;20567;-65
2021/09/22 08:31:50;;;;;;;18.00;11.97;;;13.50;98.50;;;;;;5034275;28;20755;-65
2021/09/22 08:34:17;;;;;;;15.50;11.60;;;13.70;98.70;;;;;;5034078;28;20207;-65
2021/09/22 08:36:46;;;;;;;12.83;10.00;;;13.80;97.00;;;;;;5034343;28;20407;-65
2021/09/22 08:39:13;;;;;;;12.43;9.57;;;13.90;97.50;;;;;;5033619;28;20923;-65
2021/09/22 08:41:40;;;;;;;14.93;10.60;;;14.00;97.10;;;;;;5033982;28;20404;-63
2021/09/22 08:44:06;;;;;;;11.60;8.37;;;14.30;96.50;;;;;;5033960;28;20469;-66
2021/09/22 08:46:34;;;;;;;14.60;10.23;;;14.50;97.00;;;;;;5034171;28;20764;-66
2021/09/22 08:49:03;;;;;;;10.80;8.50;;;14.60;95.60;;;;;;5033566;28;20501;-64
2021/09/22 08:51:29;;;;;;;11.53;9.17;;;14.70;95.30;;;;;;5033846;28;20414;-63
2021/09/22 08:53:55;;;;;;;17.70;8.80;;;14.70;94.90;;;;;;5033674;28;20820;-64
2021/09/22 08:56:20;;;;;;;14.23;9.33;;;15.10;96.40;;;;;;5033853;28;20491;-63
2021/09/22 08:58:46;;;;;;;9.67;8.63;;;15.20;94.10;;;;;;5033533;28;20848;-63
2021/09/22 09:01:14;;;;;;;10.20;7.60;;;15.30;93.80;;;;;;5033730;28;20169;-63
2021/09/22 09:03:42;;;;;;;11.57;9.77;;;15.50;94.20;;;;;;5033816;28;20216;-64
2021/09/22 09:06:19;;;;;;;10.00;8.60;;;15.60;92.90;;;;;;5033559;28;20418;-64
2021/09/22 09:08:45;;;;;;;8.87;7.23;;;15.80;93.20;;;;;;5033086;28;20951;-63
2021/09/22 09:11:11;;;;;;;8.13;6.77;;;16.00;92.70;;;;;;5032383;28;20415;-64
2021/09/22 09:13:50;;;;;;;11.93;7.53;;;16.20;92.30;;;;;;5032439;28;20196;-63
2021/09/22 09:16:21;;;;;;;11.97;9.47;;;16.30;92.20;;;;;;5032515;28;20637;-63
2021/09/22 09:18:53;;;;;;;9.80;7.73;;;16.50;91.40;;;;;;5031963;28;20430;-64
2021/09/22 09:21:21;;;;;;;8.27;7.47;;;16.90;91.30;;;;;;5032519;28;20435;-63
2021/09/22 09:23:56;;;;;;;8.17;7.33;;;17.20;91.30;;;;;;5032555;28;20418;-64
2021/09/22 09:26:27;;;;;;;9.93;8.20;;;17.40;91.00;;;;;;5032366;28;20774;-65
2021/09/22 09:28:56;;;;;;;10.60;9.07;;;18.00;91.30;;;;;;5031902;28;20427;-65
2021/09/22 09:31:29;;;;;;;9.53;8.37;;;18.60;89.10;;;;;;5032048;28;20407;-65
2021/09/22 09:33:56;;;;;;;10.03;7.70;;;18.70;88.40;;;;;;5032101;28;21026;-65
2021/09/22 09:36:34;;;;;;;11.17;7.80;;;18.80;87.40;;;;;;5032173;28;20486;-65
2021/09/22 09:39:07;;;;;;;8.70;6.40;;;18.80;87.70;;;;;;5031733;28;20423;-65
2021/09/22 09:41:42;;;;;;;8.03;6.20;;;18.70;84.30;;;;;;5031901;28;20403;-66
2021/09/22 09:44:10;;;;;;;9.93;7.00;;;18.80;88.50;;;;;;5032231;28;20429;-65
2021/09/22 09:46:37;;;;;;;10.13;6.20;;;19.30;85.10;;;;;;5032078;28;20404;-64
2021/09/22 09:49:16;;;;;;;7.23;6.53;;;19.20;83.30;;;;;;5031599;28;20432;-65
2021/09/22 09:51:49;;;;;;;5.93;5.33;;;19.60;87.60;;;;;;5031864;28;20407;-65
2021/09/22 09:54:33;;;;;;;7.53;5.77;;;19.70;83.40;;;;;;5031676;28;20447;-65
2021/09/22 09:57:13;;;;;;;6.03;4.50;;;19.80;84.80;;;;;;5031268;28;20399;-64
2021/09/22 09:59:50;;;;;;;6.90;5.97;;;20.30;85.00;;;;;;5031421;28;20496;-64
2021/09/22 10:02:28;;;;;;;5.37;4.87;;;20.40;82.10;;;;;;5032440;28;20403;-64
2021/09/22 10:04:54;;;;;;;6.63;6.03;;;20.50;78.90;;;;;;5031739;28;20411;-65
2021/09/22 10:07:20;;;;;;;5.37;4.93;;;20.80;81.30;;;;;;5031530;28;20497;-64
2021/09/22 10:09:46;;;;;;;6.40;5.70;;;21.40;82.60;;;;;;4994092;28;1084257;-65
2021/09/22 10:12:13;;;;;;;8.60;4.40;;;21.50;78.80;;;;;;5032480;28;20173;-64
2021/09/22 10:14:40;;;;;;;7.03;5.97;;;21.60;75.80;;;;;;5032336;28;20226;-65
2021/09/22 10:17:06;;;;;;;4.80;4.30;;;21.50;76.20;;;;;;5032065;28;20411;-64
2021/09/22 10:19:33;;;;;;;5.63;4.47;;;21.70;77.30;;;;;;5031939;28;20418;-64
2021/09/22 10:21:59;;;;;;;5.67;5.00;;;21.80;77.80;;;;;;5032214;28;20770;-65
2021/09/22 10:24:25;;;;;;;5.83;5.23;;;22.20;75.40;;;;;;5032133;28;20415;-65
2021/09/22 10:26:51;;;;;;;6.43;4.70;;;22.60;80.30;;;;;;5032148;28;20173;-65
2021/09/22 10:29:25;;;;;;;8.47;5.13;;;23.10;78.20;;;;;;5031871;28;20750;-64
2021/09/22 10:31:52;;;;;;;5.13;4.73;;;23.50;74.10;;;;;;5032048;28;20180;-65
2021/09/22 10:34:36;;;;;;;5.83;4.80;;;23.80;71.20;;;;;;5032038;28;20454;-66
2021/09/22 10:37:29;;;;;;;6.27;5.67;;;24.20;72.00;;;;;;5032342;28;20411;-65
2021/09/22 10:39:55;;;;;;;4.87;4.47;;;24.20;71.80;;;;;;5031814;28;20737;-65
2021/09/22 10:42:23;;;;;;;5.53;5.07;;;24.30;71.20;;;;;;5032024;28;20514;-65
2021/09/22 10:44:49;;;;;;;4.50;4.10;;;24.30;73.40;;;;;;5031967;28;20616;-66
2021/09/22 10:47:20;;;;;;;6.63;5.13;;;24.40;72.10;;;;;;5031858;28;20626;-66
2021/09/22 10:49:46;;;;;;;5.63;5.13;;;24.40;72.10;;;;;;5031528;28;20175;-65
2021/09/22 10:52:34;;;;;;;5.70;5.10;;;24.30;70.40;;;;;;5031901;28;20404;-65
2021/09/22 10:55:18;;;;;;;6.30;5.70;;;24.10;67.10;;;;;;5031886;28;20286;-66
2021/09/22 10:57:47;;;;;;;5.30;4.77;;;23.70;68.90;;;;;;5031704;28;20426;-65
2021/09/22 11:00:15;;;;;;;4.60;4.20;;;23.50;72.30;;;;;;5031287;28;20411;-66
2021/09/22 11:02:47;;;;;;;4.37;3.97;;;23.70;71.60;;;;;;5031748;28;20403;-65
2021/09/22 11:05:32;;;;;;;5.00;4.60;;;24.10;72.90;;;;;;5031530;28;20500;-66
2021/09/22 11:08:08;;;;;;;4.40;4.00;;;24.40;70.00;;;;;;5032243;28;20561;-65
2021/09/22 11:10:53;;;;;;;3.70;3.37;;;24.60;70.20;;;;;;5035895;28;20407;-65
2021/09/22 11:13:19;;;;;;;3.63;3.33;;;24.80;68.20;;;;;;5035726;28;20448;-67
2021/09/22 11:15:48;;;;;;;4.33;3.93;;;24.90;71.10;;;;;;5035658;28;20534;-66
2021/09/22 11:18:18;;;;;;;4.37;4.00;;;25.10;71.80;;;;;;5035313;28;20196;-67
2021/09/22 11:20:55;;;;;;;4.53;4.13;;;25.30;68.60;;;;;;5035594;28;20403;-66
2021/09/22 11:23:22;;;;;;;3.97;3.67;;;25.50;68.40;;;;;;5035460;28;20895;-67
2021/09/22 11:25:48;;;;;;;3.40;3.10;;;25.40;65.10;;;;;;5035426;28;20443;-67
2021/09/22 11:28:14;;;;;;;2.97;2.57;;;25.50;66.30;;;;;;5035164;28;20927;-66
2021/09/22 11:30:41;;;;;;;3.13;2.93;;;25.70;63.90;;;;;;5035408;28;20418;-67
2021/09/22 11:33:22;;;;;;;3.30;3.10;;;26.10;70.00;;;;;;5035483;28;20490;-67
2021/09/22 11:35:47;;;;;;;3.43;3.13;;;26.50;60.90;;;;;;5035310;28;20481;-66
2021/09/22 11:38:13;;;;;;;3.40;3.10;;;26.60;61.80;;;;;;5034761;28;20431;-66
2021/09/22 11:40:40;;;;;;;3.20;3.00;;;26.90;62.40;;;;;;5035029;28;20179;-66
2021/09/22 11:43:11;;;;;;;3.50;3.30;;;27.10;60.70;;;;;;5035237;28;20173;-66
2021/09/22 11:45:41;;;;;;;4.10;3.70;;;27.80;63.50;;;;;;5035197;28;20443;-66
2021/09/22 11:48:08;;;;;;;3.10;2.30;;;28.00;58.50;;;;;;5034938;28;20801;-67
2021/09/22 11:50:41;;;;;;;2.50;2.30;;;27.80;59.60;;;;;;5034988;28;20443;-66
2021/09/22 11:53:14;;;;;;;3.33;3.03;;;28.00;65.30;;;;;;5035008;28;20434;-68
2021/09/22 11:55:41;;;;;;;2.63;2.43;;;28.00;57.90;;;;;;5034945;28;20486;-67
2021/09/22 11:58:13;;;;;;;2.73;2.53;;;27.90;56.50;;;;;;5034673;28;20951;-67
2021/09/22 12:00:40;;;;;;;2.57;2.40;;;28.30;62.30;;;;;;5034928;28;20595;-67
2021/09/22 12:03:07;;;;;;;2.80;2.20;;;28.70;59.40;;;;;;5034959;28;20871;-67
2021/09/22 12:05:33;;;;;;;3.40;3.10;;;29.20;57.30;;;;;;5033887;28;20784;-69
2021/09/22 12:07:58;;;;;;;3.40;3.10;;;29.60;57.30;;;;;;5034286;28;20445;-68
2021/09/22 12:10:25;;;;;;;3.53;3.33;;;29.90;57.20;;;;;;5034745;28;20176;-67
2021/09/22 12:12:51;;;;;;;3.20;2.90;;;30.40;55.90;;;;;;5034962;28;20520;-68
2021/09/22 12:15:17;;;;;;;3.40;3.20;;;30.70;56.00;;;;;;5034625;28;20458;-69
2021/09/22 12:17:44;;;;;;;2.80;2.70;;;30.80;55.70;;;;;;5034441;28;20427;-67
2021/09/22 12:20:15;;;;;;;3.33;3.03;;;30.80;55.50;;;;;;5033696;28;20188;-67
2021/09/22 12:22:43;;;;;;;3.83;3.53;;;30.70;55.20;;;;;;5034034;28;21187;-68
2021/09/22 12:25:13;;;;;;;2.87;2.70;;;30.80;55.70;;;;;;5034199;28;20430;-67
2021/09/22 12:27:50;;;;;;;2.67;2.57;;;31.00;55.10;;;;;;5034354;28;20442;-67
2021/09/22 12:30:17;;;;;;;2.97;2.77;;;30.90;54.20;;;;;;5034070;28;20959;-67
2021/09/22 12:32:52;;;;;;;2.60;2.50;;;30.70;54.10;;;;;;5034208;28;20494;-67
2021/09/22 12:35:17;;;;;;;2.53;2.43;;;31.10;57.30;;;;;;5034331;28;20461;-67
2021/09/22 12:37:54;;;;;;;3.57;2.80;;;31.40;54.50;;;;;;5034049;28;20424;-67
2021/09/22 12:40:49;;;;;;;2.90;2.80;;;31.30;54.00;;;;;;5033932;28;20168;-67
2021/09/22 12:43:24;;;;;;;2.67;2.57;;;31.80;53.10;;;;;;5031567;28;20443;-67
2021/09/22 12:45:51;;;;;;;2.80;2.60;;;32.00;54.20;;;;;;5034147;28;20403;-67
2021/09/22 12:48:25;;;;;;;2.30;2.20;;;32.10;53.10;;;;;;5033706;28;20926;-68
2021/09/22 12:50:52;;;;;;;2.93;2.50;;;31.70;52.40;;;;;;5033794;28;20485;-67